createdAt,value
2018-07-30T00:04:09.924Z,5.23
2018-07-30T00:09:13.182Z,4.77
2018-07-30T00:14:16.421Z,5.30
2018-07-30T00:19:20.030Z,4.70
2018-07-30T00:24:23.270Z,5.50
2018-07-30T00:29:26.476Z,4.27
2018-07-30T00:34:29.693Z,4.23
2018-07-30T00:39:33.043Z,4.77
2018-07-30T00:44:36.230Z,4.20
2018-07-30T00:49:39.494Z,4.07
2018-07-30T00:54:42.905Z,3.97
2018-07-30T00:59:46.298Z,4.17
2018-07-30T01:04:49.460Z,3.40
2018-07-30T01:09:52.998Z,3.70
2018-07-30T01:14:56.172Z,4.10
2018-07-30T01:19:59.528Z,4.10
2018-07-30T01:25:02.868Z,4.10
2018-07-30T01:30:06.656Z,3.63
2018-07-30T01:35:10.436Z,4.17
2018-07-30T01:40:13.703Z,3.60
2018-07-30T01:45:17.810Z,3.93
2018-07-30T01:50:21.482Z,3.40
2018-07-30T01:55:24.867Z,3.60
2018-07-30T02:00:28.040Z,3.63
2018-07-30T02:05:31.491Z,3.70
2018-07-30T02:10:34.964Z,3.33
2018-07-30T02:15:38.146Z,2.70
2018-07-30T02:20:41.530Z,3.10
2018-07-30T02:25:44.986Z,3.70
2018-07-30T02:30:48.339Z,3.03
2018-07-30T02:35:51.553Z,3.87
2018-07-30T02:40:54.743Z,3.30
2018-07-30T02:45:57.903Z,3.70
2018-07-30T02:51:01.453Z,3.70
2018-07-30T02:56:04.763Z,3.53
2018-07-30T03:01:07.973Z,3.10
2018-07-30T03:06:11.284Z,3.27
2018-07-30T03:11:14.643Z,2.90
2018-07-30T03:16:17.947Z,3.30
2018-07-30T03:21:21.225Z,2.67
2018-07-30T03:26:25.046Z,3.00
2018-07-30T03:31:28.297Z,2.93
2018-07-30T03:36:31.773Z,3.03
2018-07-30T03:41:34.988Z,3.17
2018-07-30T03:46:38.806Z,2.73
2018-07-30T03:51:42.132Z,2.80
2018-07-30T03:56:45.734Z,2.30
2018-07-30T04:01:49.403Z,3.03
2018-07-30T04:06:53.039Z,2.43
2018-07-30T04:11:56.700Z,2.80
2018-07-30T04:16:59.906Z,2.40
2018-07-30T04:22:03.251Z,2.80
2018-07-30T04:27:10.099Z,2.80
2018-07-30T04:32:13.750Z,2.50
2018-07-30T04:37:17.084Z,2.30
2018-07-30T04:42:20.272Z,2.57
2018-07-30T04:47:23.406Z,2.80
2018-07-30T04:52:27.093Z,2.73
2018-07-30T04:57:30.907Z,2.70
2018-07-30T05:02:34.473Z,2.70
2018-07-30T05:07:37.932Z,2.83
2018-07-30T05:12:41.364Z,2.00
2018-07-30T05:17:44.581Z,2.30
2018-07-30T05:22:47.820Z,2.37
2018-07-30T05:27:51.099Z,1.97
2018-07-30T05:32:54.375Z,2.37
2018-07-30T05:37:57.562Z,2.20
2018-07-30T05:43:01.216Z,2.60
2018-07-30T05:48:04.761Z,2.20
2018-07-30T05:53:08.153Z,2.27
2018-07-30T05:58:11.367Z,1.90
2018-07-30T06:03:14.633Z,2.33
2018-07-30T06:08:17.909Z,2.10
2018-07-30T06:13:21.523Z,2.20
2018-07-30T06:18:24.751Z,2.17
2018-07-30T06:23:28.430Z,2.20
2018-07-30T06:28:31.621Z,2.47
2018-07-30T06:33:34.934Z,2.50
2018-07-30T06:38:38.159Z,2.10
2018-07-30T06:43:42.935Z,2.00
2018-07-30T06:48:46.259Z,2.27
2018-07-30T06:53:50.145Z,2.20
2018-07-30T06:58:53.778Z,2.33
2018-07-30T07:03:57.273Z,1.83
2018-07-30T07:09:00.721Z,2.90
2018-07-30T07:14:04.354Z,4.30
2018-07-30T07:19:07.528Z,3.77
2018-07-30T07:24:10.929Z,4.67
2018-07-30T07:29:14.248Z,5.30
2018-07-30T07:34:17.580Z,5.90
2018-07-30T07:39:20.888Z,5.80
2018-07-30T07:44:24.100Z,5.43
2018-07-30T07:49:27.363Z,9.17
2018-07-30T07:54:30.754Z,9.43
2018-07-30T07:59:35.402Z,9.33
2018-07-30T08:04:38.724Z,8.57
2018-07-30T08:09:42.486Z,8.73
2018-07-30T08:14:45.664Z,8.07
2018-07-30T08:19:48.961Z,6.90
2018-07-30T08:24:52.291Z,7.77
2018-07-30T08:29:55.641Z,6.80
2018-07-30T08:34:58.884Z,6.77
2018-07-30T08:40:02.263Z,6.87
2018-07-30T08:45:06.334Z,6.27
2018-07-30T08:50:09.614Z,6.60
2018-07-30T08:55:13.224Z,6.77
2018-07-30T09:00:17.695Z,5.63
2018-07-30T09:05:21.085Z,6.10
2018-07-30T09:10:24.394Z,5.47
2018-07-30T09:15:28.433Z,6.10
2018-07-30T09:20:32.064Z,6.50
2018-07-30T09:25:35.307Z,6.13
2018-07-30T09:30:38.929Z,6.20
2018-07-30T09:35:42.168Z,6.30
2018-07-30T09:40:45.580Z,7.97
2018-07-30T09:45:48.856Z,6.37
2018-07-30T09:50:52.104Z,6.63
2018-07-30T09:55:55.967Z,5.40
2018-07-30T10:01:06.241Z,6.37
2018-07-30T10:06:09.667Z,5.87
2018-07-30T10:11:13.077Z,6.37
2018-07-30T10:16:16.355Z,6.30
2018-07-30T10:21:19.567Z,5.73
2018-07-30T10:26:23.330Z,5.63
2018-07-30T10:31:26.624Z,5.30
2018-07-30T10:36:29.901Z,5.13
2018-07-30T10:41:33.792Z,4.57
2018-07-30T10:46:37.067Z,5.40
2018-07-30T10:51:40.418Z,5.07
2018-07-30T10:56:43.670Z,4.57
2018-07-30T11:01:46.944Z,4.60
2018-07-30T11:06:50.435Z,4.60
2018-07-30T11:11:53.649Z,4.57
2018-07-30T11:16:57.056Z,4.20
2018-07-30T11:22:00.767Z,4.23
2018-07-30T11:27:04.395Z,4.00
2018-07-30T11:32:08.020Z,4.17
2018-07-30T11:37:11.997Z,4.60
2018-07-30T11:42:15.273Z,4.27
2018-07-30T11:47:18.895Z,4.50
2018-07-30T11:52:23.636Z,4.47
2018-07-30T11:57:27.243Z,4.90
2018-07-30T12:02:30.856Z,4.60
2018-07-30T12:07:34.124Z,4.70
2018-07-30T12:12:37.342Z,5.00
2018-07-30T12:17:40.592Z,5.50
2018-07-30T12:22:44.640Z,4.70
2018-07-30T12:27:47.865Z,4.03
2018-07-30T12:32:51.151Z,4.47
2018-07-30T12:37:54.966Z,5.50
2018-07-30T12:42:58.179Z,4.50
2018-07-30T12:48:01.368Z,4.57
2018-07-30T12:53:04.799Z,4.57
2018-07-30T12:58:08.128Z,4.97
2018-07-30T13:03:11.715Z,4.80
2018-07-30T13:08:15.151Z,5.23
2018-07-30T13:13:18.710Z,5.27
2018-07-30T13:18:21.960Z,5.50
2018-07-30T13:23:25.360Z,5.07
2018-07-30T13:28:28.848Z,5.80
2018-07-30T13:33:32.397Z,5.57
2018-07-30T13:38:35.646Z,5.17
2018-07-30T13:43:38.896Z,5.87
2018-07-30T13:48:43.254Z,5.43
2018-07-30T13:53:46.764Z,5.30
2018-07-30T13:58:50.094Z,5.27
2018-07-30T14:03:53.382Z,5.17
2018-07-30T14:08:56.767Z,4.73
2018-07-30T14:14:00.059Z,4.90
2018-07-30T14:19:03.302Z,6.00
2018-07-30T14:24:07.202Z,5.27
2018-07-30T14:29:10.541Z,5.47
2018-07-30T14:34:13.974Z,5.40
2018-07-30T14:39:17.729Z,5.30
2018-07-30T14:44:21.325Z,5.10
2018-07-30T14:49:26.116Z,4.80
2018-07-30T14:54:29.441Z,5.20
2018-07-30T14:59:32.830Z,5.00
2018-07-30T15:04:36.104Z,6.00
2018-07-30T15:09:39.432Z,5.00
2018-07-30T15:14:42.777Z,5.40
2018-07-30T15:19:46.368Z,4.60
2018-07-30T15:24:50.473Z,5.23
2018-07-30T15:29:53.920Z,5.23
2018-07-30T15:34:57.311Z,5.17
2018-07-30T15:40:00.825Z,5.60
2018-07-30T15:45:04.819Z,5.70
2018-07-30T15:50:09.013Z,5.30
2018-07-30T15:55:12.465Z,5.27
2018-07-30T16:00:16.062Z,5.30
2018-07-30T16:05:19.319Z,5.10
2018-07-30T16:10:22.682Z,4.87
2018-07-30T16:15:25.991Z,5.00
2018-07-30T16:20:29.342Z,5.70
2018-07-30T16:25:32.630Z,6.23
2018-07-30T16:30:36.096Z,5.80
2018-07-30T16:35:39.439Z,5.93
2018-07-30T16:40:42.713Z,5.50
2018-07-30T16:45:46.437Z,5.10
2018-07-30T16:50:49.851Z,5.23
2018-07-30T16:55:53.536Z,5.47
2018-07-30T17:00:57.048Z,5.80
2018-07-30T17:06:00.402Z,5.10
2018-07-30T17:11:04.257Z,5.00
2018-07-30T17:16:07.715Z,5.57
2018-07-30T17:21:11.644Z,4.97
2018-07-30T17:26:14.938Z,5.30
2018-07-30T17:31:18.237Z,5.67
2018-07-30T17:36:22.680Z,5.50
2018-07-30T17:41:26.051Z,6.23
2018-07-30T17:46:29.479Z,4.53
2018-07-30T17:51:33.485Z,5.00
2018-07-30T17:56:36.977Z,6.03
2018-07-30T18:01:42.436Z,4.80
2018-07-30T18:06:45.485Z,5.30
2018-07-30T18:11:49.806Z,4.23
2018-07-30T18:16:53.034Z,4.50
2018-07-30T18:21:56.418Z,5.80
2018-07-30T18:26:59.748Z,5.00
2018-07-30T18:32:04.144Z,4.43
2018-07-30T18:37:07.503Z,5.03
2018-07-30T18:42:11.246Z,4.50
2018-07-30T18:47:14.931Z,4.80
2018-07-30T18:52:18.236Z,4.90
2018-07-30T18:57:21.887Z,5.30
2018-07-30T19:02:25.367Z,5.10
2018-07-30T19:07:28.890Z,5.07
2018-07-30T19:12:32.739Z,5.17
2018-07-30T19:17:36.265Z,5.30
2018-07-30T19:22:39.626Z,4.83
2018-07-30T19:27:43.787Z,5.30
2018-07-30T19:32:48.207Z,5.40
2018-07-30T19:37:51.794Z,6.07
2018-07-30T19:42:55.152Z,6.30
2018-07-30T19:47:58.856Z,7.10
2018-07-30T19:53:02.364Z,6.90
2018-07-30T19:58:05.780Z,8.27
2018-07-30T20:03:08.882Z,7.90
2018-07-30T20:08:12.748Z,6.63
2018-07-30T20:13:16.615Z,5.70
2018-07-30T20:18:20.073Z,5.17
2018-07-30T20:23:23.317Z,5.50
2018-07-30T20:28:27.759Z,4.90
2018-07-30T20:33:31.347Z,5.40
2018-07-30T20:38:34.658Z,6.87
2018-07-30T20:43:38.577Z,5.30
2018-07-30T20:48:41.953Z,4.70
2018-07-30T20:53:45.479Z,5.60
2018-07-30T20:58:48.791Z,5.10
2018-07-30T21:03:52.594Z,5.97
2018-07-30T21:08:56.333Z,6.03
2018-07-30T21:13:59.864Z,5.67
2018-07-30T21:19:03.075Z,5.00
2018-07-30T21:24:07.497Z,5.47
2018-07-30T21:29:11.147Z,5.50
2018-07-30T21:34:14.423Z,5.90
2018-07-30T21:39:17.854Z,5.70
2018-07-30T21:44:21.193Z,5.10
2018-07-30T21:49:24.736Z,5.33
2018-07-30T21:54:28.188Z,5.63
2018-07-30T21:59:31.923Z,5.90
2018-07-30T22:04:35.250Z,5.43
2018-07-30T22:09:38.481Z,5.77
2018-07-30T22:14:41.774Z,6.43
2018-07-30T22:19:45.018Z,5.20
2018-07-30T22:24:48.328Z,5.60
2018-07-30T22:29:51.574Z,5.33
2018-07-30T22:34:54.915Z,5.43
2018-07-30T22:39:58.283Z,5.70
2018-07-30T22:45:01.688Z,5.60
2018-07-30T22:50:05.085Z,5.40
2018-07-30T22:55:08.287Z,6.20
2018-07-30T23:00:11.702Z,5.10
2018-07-30T23:05:15.055Z,5.40
2018-07-30T23:10:18.409Z,5.50
2018-07-30T23:15:21.636Z,4.70
2018-07-30T23:20:24.954Z,4.27
2018-07-30T23:25:28.152Z,4.37
2018-07-30T23:30:31.490Z,4.33
2018-07-30T23:35:34.812Z,5.50
2018-07-30T23:40:38.802Z,4.70
2018-07-30T23:45:41.732Z,3.90
2018-07-30T23:50:45.800Z,4.60
2018-07-30T23:55:49.055Z,5.00
